Bookmark and Share
Track history (hours):
 

Diane B. Siegel

More information available from US FCC via Universal Licensing System and Coast Guard Vessel Documentation Center.

Last reported at 2012-Nov-21 13:30 UTC. Time now 2014-Apr-19 02:08 UTC.
Position N 38°54' W 084°50'.
Warning: this ship's position is years out of date!

Length 37 m.

Type: Tow > 200 m length. MMSI: 367402560.

NotesDate/timePositionNaut miles runAvg speedWind from/ knotsBaromVisibWave heightAir tempDewpointWater temp
2012-Nov-21 13:30N 38°54' W 084°50'3 3.3
2012-Nov-21 12:32N 38°57' W 084°51'5 5.1
2012-Nov-21 11:37N 39°01' W 084°52'5 4.4
2012-Nov-21 10:28N 39°06' W 084°50'1 1.0
2012-Nov-21 09:33N 39°07' W 084°48'0 0.0
2012-Nov-21 08:33N 39°07' W 084°48'0 0.0
2012-Nov-21 07:33N 39°07' W 084°48'3 2.9
2012-Nov-21 06:32N 39°09' W 084°45'5 5.7
2012-Nov-21 05:36N 39°06' W 084°40'6 5.3
2012-Nov-21 04:33N 39°06' W 084°33'5 5.0
2012-Nov-21 03:33N 39°06' W 084°26'5 5.1
2012-Nov-21 02:33N 39°02' W 084°22'5 4.5
2012-Nov-21 01:33N 38°59' W 084°18'4 4.0
2012-Nov-21 00:32N 39°02' W 084°21'5 5.3
2012-Nov-20 23:32N 39°06' W 084°26'5 4.8
2012-Nov-20 22:32N 39°06' W 084°32'5 5.4
2012-Nov-20 21:32N 39°05' W 084°39'6 5.8
2012-Nov-20 20:32N 39°08' W 084°46'  
2012-Nov-13 17:29N 38°48' W 084°53'7 3.6
2012-Nov-13 15:32N 38°53' W 084°48'4 3.9
2012-Nov-13 14:31N 38°57' W 084°51'13 4.2
2012-Nov-13 11:30N 39°08' W 084°43'7 0.2
2012-Nov-12 00:33N 39°05' W 084°35'3 3.1
2012-Nov-11 23:27N 39°06' W 084°40'6 2.9
2012-Nov-11 21:32N 39°08' W 084°46'4 3.4
2012-Nov-11 20:25N 39°06' W 084°50'3 3.2
2012-Nov-11 19:33N 39°04' W 084°53'3 2.8
2012-Nov-11 18:28N 39°01' W 084°52'3 3.4
2012-Nov-11 17:29N 38°58' W 084°50'4 3.7
2012-Nov-11 16:28N 38°55' W 084°53'3 3.2
2012-Nov-11 15:32N 38°54' W 084°49'3 2.7
2012-Nov-11 14:31N 38°51' W 084°48'  

Dump ship's entire track history

sailing weather and tide predictions

Diane B. Siegel — WDE8188 — position and weather